METAR Formatted Surface Weather Observation
Issued by NWS

Home | Current Version | Previous Version | Text Only | Print | Product List | Glossary On
Versions: 1
000
SAUS45 KPSR 251457
MTRALK
METAR KALK 251456Z AUTO 25008KT 10SM CLR 24/10 A3021 RMK AO2 SLP138
T02390100 51006



USA.gov is the U.S. government's official web portal to all federal, state and local government web resources and services.